createdAt,value
2018-06-07T00:00:01.093Z,15.70
2018-06-07T00:03:05.499Z,15.70
2018-06-07T00:06:09.877Z,15.70
2018-06-07T00:09:14.262Z,15.70
2018-06-07T00:12:18.680Z,15.80
2018-06-07T00:15:23.085Z,15.70
2018-06-07T00:18:27.458Z,15.70
2018-06-07T00:21:31.860Z,15.70
2018-06-07T00:24:36.214Z,15.70
2018-06-07T00:27:40.601Z,15.70
2018-06-07T00:30:44.945Z,15.80
2018-06-07T00:33:50.198Z,15.70
2018-06-07T00:36:54.540Z,15.70
2018-06-07T00:39:58.931Z,15.60
2018-06-07T00:43:03.285Z,15.60
2018-06-07T00:46:07.665Z,15.60
2018-06-07T00:52:16.107Z,15.50
2018-06-07T00:55:20.484Z,15.40
2018-06-07T00:58:24.854Z,15.40
2018-06-07T01:01:29.238Z,15.40
2018-06-07T01:04:33.629Z,15.30
2018-06-07T01:07:38.021Z,15.30
2018-06-07T01:10:42.384Z,15.30
2018-06-07T01:13:46.759Z,15.30
2018-06-07T01:16:51.114Z,15.20
2018-06-07T01:19:55.485Z,15.20
2018-06-07T01:22:59.865Z,15.20
2018-06-07T01:26:04.229Z,15.10
2018-06-07T01:31:27.236Z,15.10
2018-06-07T01:34:31.588Z,15.10
2018-06-07T01:37:35.998Z,15.00
2018-06-07T01:40:40.341Z,15.00
2018-06-07T01:43:44.764Z,14.90
2018-06-07T01:46:49.145Z,14.80
2018-06-07T01:49:53.497Z,14.80
2018-06-07T01:52:57.854Z,14.70
2018-06-07T01:56:02.213Z,14.70
2018-06-07T01:59:06.581Z,14.70
2018-06-07T02:02:10.957Z,14.60
2018-06-07T02:05:15.321Z,14.60
2018-06-07T02:08:19.751Z,14.50
2018-06-07T02:11:24.114Z,14.40
2018-06-07T02:14:28.493Z,14.40
2018-06-07T02:17:32.865Z,14.30
2018-06-07T02:20:37.256Z,14.20
2018-06-07T02:23:41.610Z,14.10
2018-06-07T02:26:45.964Z,14.10
2018-06-07T02:29:50.328Z,14.00
2018-06-07T02:32:54.720Z,13.80
2018-06-07T02:35:59.119Z,13.80
2018-06-07T02:39:03.587Z,13.70
2018-06-07T02:42:07.957Z,13.70
2018-06-07T02:45:12.370Z,13.70
2018-06-07T02:48:16.736Z,13.70
2018-06-07T02:51:21.121Z,13.70
2018-06-07T02:54:25.494Z,13.70
2018-06-07T02:57:29.909Z,13.70
2018-06-07T03:00:34.285Z,13.80
2018-06-07T03:03:38.660Z,13.80
2018-06-07T03:06:43.053Z,13.70
2018-06-07T03:09:47.408Z,13.80
2018-06-07T03:12:51.766Z,13.70
2018-06-07T03:15:56.152Z,13.70
2018-06-07T03:19:00.567Z,13.70
2018-06-07T03:22:04.954Z,13.70
2018-06-07T03:25:09.316Z,13.70
2018-06-07T03:28:13.701Z,13.60
2018-06-07T03:31:18.084Z,13.50
2018-06-07T03:34:22.524Z,13.50
2018-06-07T03:37:26.903Z,13.50
2018-06-07T03:40:31.290Z,13.40
2018-06-07T03:43:35.665Z,13.40
2018-06-07T03:46:40.025Z,13.50
2018-06-07T03:49:44.385Z,13.40
2018-06-07T03:52:48.755Z,13.50
2018-06-07T03:55:53.134Z,13.50
2018-06-07T03:58:57.513Z,13.60
2018-06-07T04:02:02.554Z,13.70
2018-06-07T04:05:06.926Z,13.80
2018-06-07T04:08:11.313Z,13.90
2018-06-07T04:11:15.702Z,14.00
2018-06-07T04:14:20.076Z,14.10
2018-06-07T04:17:24.481Z,14.10
2018-06-07T04:20:28.877Z,14.20
2018-06-07T04:23:33.242Z,14.30
2018-06-07T04:26:37.624Z,14.40
2018-06-07T04:29:41.965Z,14.50
2018-06-07T04:32:46.351Z,14.60
2018-06-07T04:35:50.725Z,14.70
2018-06-07T04:38:55.101Z,14.80
2018-06-07T04:41:59.469Z,14.90
2018-06-07T04:45:03.885Z,15.00
2018-06-07T04:48:08.249Z,15.00
2018-06-07T04:51:12.667Z,15.10
2018-06-07T04:54:17.019Z,15.20
2018-06-07T04:57:21.369Z,15.30
2018-06-07T05:00:25.734Z,15.40
2018-06-07T05:03:30.104Z,15.50
2018-06-07T05:06:34.472Z,15.70
2018-06-07T05:09:38.840Z,15.80
2018-06-07T05:12:43.220Z,16.00
2018-06-07T05:15:47.582Z,16.10
2018-06-07T05:18:51.967Z,16.20
2018-06-07T05:21:56.326Z,16.30
2018-06-07T05:25:00.716Z,16.40
2018-06-07T05:28:05.085Z,16.50
2018-06-07T05:31:09.465Z,16.60
2018-06-07T05:34:13.873Z,16.60
2018-06-07T05:37:18.253Z,16.80
2018-06-07T05:40:22.649Z,16.90
2018-06-07T05:43:27.018Z,16.90
2018-06-07T05:46:31.388Z,17.10
2018-06-07T05:49:35.778Z,17.10
2018-06-07T05:52:40.161Z,17.20
2018-06-07T05:55:44.560Z,17.30
2018-06-07T05:58:48.965Z,17.40
2018-06-07T06:01:53.325Z,17.50
2018-06-07T06:04:57.725Z,17.50
2018-06-07T06:08:02.104Z,17.60
2018-06-07T06:11:06.584Z,17.70
2018-06-07T06:14:10.931Z,17.80
2018-06-07T06:17:15.342Z,17.90
2018-06-07T06:20:19.709Z,18.00
2018-06-07T06:23:24.105Z,18.10
2018-06-07T06:26:28.494Z,18.20
2018-06-07T06:29:32.904Z,18.20
2018-06-07T06:32:37.308Z,18.30
2018-06-07T06:35:41.681Z,18.40
2018-06-07T06:38:47.919Z,18.50
2018-06-07T06:44:56.458Z,18.70
2018-06-07T06:51:05.042Z,19.00
2018-06-07T06:54:09.462Z,19.10
2018-06-07T06:57:13.857Z,19.20
2018-06-07T07:00:18.283Z,19.30
2018-06-07T07:03:22.704Z,19.50
2018-06-07T07:06:27.114Z,19.60
2018-06-07T07:09:31.502Z,19.60
2018-06-07T07:12:35.867Z,19.80
2018-06-07T07:15:40.415Z,19.90
2018-06-07T07:18:44.838Z,20.10
2018-06-07T07:21:49.200Z,20.20
2018-06-07T07:24:53.621Z,20.30
2018-06-07T07:27:58.057Z,20.40
2018-06-07T07:31:02.491Z,20.50
2018-06-07T07:34:06.941Z,20.60
2018-06-07T07:37:11.361Z,20.70
2018-06-07T07:40:15.725Z,20.80
2018-06-07T07:43:20.136Z,20.90
2018-06-07T07:46:24.526Z,21.00
2018-06-07T07:49:28.894Z,21.10
2018-06-07T07:52:33.409Z,21.30
2018-06-07T07:55:37.817Z,21.40
2018-06-07T07:58:42.194Z,21.50
2018-06-07T08:01:46.593Z,21.70
2018-06-07T08:04:50.989Z,21.80
2018-06-07T08:07:55.375Z,22.00
2018-06-07T08:10:59.769Z,22.10
2018-06-07T08:14:04.282Z,22.30
2018-06-07T08:17:08.668Z,22.40
2018-06-07T08:20:13.078Z,22.50
2018-06-07T08:23:17.447Z,22.60
2018-06-07T08:26:21.836Z,22.70
2018-06-07T08:29:26.210Z,22.70
2018-06-07T08:32:30.620Z,22.80
2018-06-07T08:38:39.149Z,23.00
2018-06-07T08:41:43.543Z,23.20
2018-06-07T08:44:47.917Z,23.30
2018-06-07T08:47:52.361Z,23.40
2018-06-07T08:50:56.761Z,23.50
2018-06-07T08:54:01.178Z,23.70
2018-06-07T08:57:05.580Z,23.80
2018-06-07T09:00:10.114Z,23.90
2018-06-07T09:03:14.494Z,24.10
2018-06-07T09:06:18.894Z,24.10
2018-06-07T09:09:23.285Z,24.30
2018-06-07T09:12:27.709Z,24.30
2018-06-07T09:15:32.098Z,24.30
2018-06-07T09:18:36.537Z,24.40
2018-06-07T09:21:40.932Z,24.40
2018-06-07T09:24:45.316Z,24.50
2018-06-07T09:27:49.680Z,24.60
2018-06-07T09:30:54.069Z,24.80
2018-06-07T09:33:58.460Z,24.80
2018-06-07T09:37:02.841Z,24.80
2018-06-07T09:40:07.548Z,24.90
2018-06-07T09:43:11.916Z,24.90
2018-06-07T09:46:16.313Z,24.90
2018-06-07T09:49:20.693Z,24.90
2018-06-07T09:52:25.078Z,24.90
2018-06-07T09:55:29.461Z,24.90
2018-06-07T09:58:34.077Z,25.00
2018-06-07T10:01:38.470Z,25.00
2018-06-07T10:04:42.848Z,25.00
2018-06-07T10:07:47.264Z,25.00
2018-06-07T10:10:51.657Z,25.10
2018-06-07T10:13:56.025Z,25.20
2018-06-07T10:17:00.457Z,25.20
2018-06-07T10:20:04.881Z,25.20
2018-06-07T10:23:09.313Z,25.20
2018-06-07T10:26:13.682Z,25.30
2018-06-07T10:29:18.091Z,25.30
2018-06-07T10:32:22.434Z,25.40
2018-06-07T10:35:26.800Z,25.40
2018-06-07T10:38:31.156Z,25.40
2018-06-07T10:41:35.545Z,25.40
2018-06-07T10:44:39.930Z,25.40
2018-06-07T10:47:44.322Z,25.50
2018-06-07T10:50:48.721Z,25.60
2018-06-07T10:56:57.186Z,25.80
2018-06-07T11:00:01.588Z,25.80
2018-06-07T11:03:06.078Z,25.80
2018-06-07T11:06:10.461Z,25.80
2018-06-07T11:09:14.853Z,25.80
2018-06-07T11:12:19.272Z,25.90
2018-06-07T11:15:23.686Z,26.00
2018-06-07T11:18:28.091Z,26.00
2018-06-07T11:21:32.485Z,26.00
2018-06-07T11:24:36.876Z,26.00
2018-06-07T11:27:41.241Z,26.00
2018-06-07T11:30:45.645Z,26.00
2018-06-07T11:33:50.003Z,26.10
2018-06-07T11:36:54.453Z,26.00
2018-06-07T11:39:58.858Z,26.00
2018-06-07T11:43:03.238Z,26.10
2018-06-07T11:46:07.613Z,26.30
2018-06-07T11:49:11.978Z,26.30
2018-06-07T11:52:16.369Z,26.30
2018-06-07T11:55:20.729Z,26.30
2018-06-07T11:58:25.105Z,26.40
2018-06-07T12:01:29.474Z,26.30
2018-06-07T12:04:33.872Z,26.20
2018-06-07T12:07:38.251Z,26.20
2018-06-07T12:10:42.651Z,26.00
2018-06-07T12:13:47.013Z,26.00
2018-06-07T12:16:51.386Z,26.00
2018-06-07T12:19:55.749Z,26.00
2018-06-07T12:23:00.129Z,25.80
2018-06-07T12:26:04.493Z,25.90
2018-06-07T12:29:08.866Z,25.90
2018-06-07T12:32:13.255Z,26.00
2018-06-07T12:35:17.614Z,26.10
2018-06-07T12:38:21.988Z,26.10
2018-06-07T12:41:26.347Z,26.10
2018-06-07T12:44:30.733Z,26.00
2018-06-07T12:47:35.109Z,26.00
2018-06-07T12:50:39.498Z,26.10
2018-06-07T12:53:43.859Z,26.00
2018-06-07T12:56:48.234Z,25.90
2018-06-07T12:59:52.596Z,25.90
2018-06-07T13:02:56.944Z,25.90
2018-06-07T13:06:01.327Z,25.90
2018-06-07T13:09:08.104Z,25.70
2018-06-07T13:12:12.475Z,25.80
2018-06-07T13:15:16.852Z,25.80
2018-06-07T13:18:21.212Z,25.80
2018-06-07T13:21:25.625Z,25.80
2018-06-07T13:24:30.500Z,25.80
2018-06-07T13:27:35.263Z,25.90
2018-06-07T13:30:39.628Z,25.90
2018-06-07T13:33:44.005Z,25.90
2018-06-07T13:36:48.365Z,26.00
2018-06-07T13:39:52.745Z,25.90
2018-06-07T13:42:57.118Z,26.00
2018-06-07T13:46:01.493Z,25.90
2018-06-07T13:49:05.873Z,26.00
2018-06-07T13:52:10.319Z,26.10
2018-06-07T13:55:19.394Z,26.20
2018-06-07T13:58:24.512Z,26.40
2018-06-07T14:04:38.227Z,26.50
2018-06-07T14:07:42.650Z,26.60
2018-06-07T14:10:47.103Z,26.70
2018-06-07T14:13:51.433Z,26.90
2018-06-07T14:16:55.813Z,27.00
2018-06-07T14:20:00.200Z,27.10
2018-06-07T14:23:04.575Z,27.20
2018-06-07T14:26:08.993Z,27.20
2018-06-07T14:29:13.385Z,27.20
2018-06-07T14:32:17.775Z,27.30
2018-06-07T14:35:22.157Z,27.50
2018-06-07T14:38:26.536Z,27.60
2018-06-07T14:41:30.884Z,27.70
2018-06-07T14:44:35.269Z,27.90
2018-06-07T14:47:39.629Z,28.20
2018-06-07T14:50:43.987Z,28.50
2018-06-07T14:53:48.414Z,28.70
2018-06-07T14:56:52.797Z,28.90
2018-06-07T14:59:57.177Z,29.10
2018-06-07T15:03:01.549Z,29.40
2018-06-07T15:06:05.985Z,29.70
2018-06-07T15:09:10.361Z,29.70
2018-06-07T15:12:14.728Z,29.70
2018-06-07T15:15:19.837Z,30.00
2018-06-07T15:18:25.632Z,30.20
2018-06-07T15:21:30.121Z,30.50
2018-06-07T15:24:34.526Z,30.30
2018-06-07T15:27:39.021Z,30.30
2018-06-07T15:30:43.426Z,30.40
2018-06-07T15:33:47.838Z,30.50
2018-06-07T15:36:52.238Z,30.50
2018-06-07T15:39:56.689Z,30.60
2018-06-07T15:43:01.028Z,30.70
2018-06-07T15:46:05.461Z,30.90
2018-06-07T15:49:09.861Z,30.80
2018-06-07T15:52:14.252Z,30.90
2018-06-07T15:55:18.656Z,30.90
2018-06-07T15:58:23.062Z,30.80
2018-06-07T16:01:27.461Z,30.70
2018-06-07T16:04:31.878Z,30.70
2018-06-07T16:07:36.480Z,30.10
2018-06-07T16:10:40.898Z,29.90
2018-06-07T16:13:45.264Z,29.70
2018-06-07T16:16:49.668Z,29.20
2018-06-07T16:19:54.109Z,28.90
2018-06-07T16:22:58.513Z,28.40
2018-06-07T16:26:02.881Z,27.90
2018-06-07T16:29:07.269Z,27.30
2018-06-07T16:32:11.654Z,26.80
2018-06-07T16:35:16.049Z,26.60
2018-06-07T16:38:20.416Z,26.30
2018-06-07T16:41:24.797Z,26.00
2018-06-07T16:44:29.165Z,25.70
2018-06-07T16:47:33.536Z,25.50
2018-06-07T16:50:37.897Z,25.30
2018-06-07T16:53:42.272Z,25.10
2018-06-07T16:56:46.646Z,25.00
2018-06-07T16:59:50.996Z,24.80
2018-06-07T17:02:55.349Z,24.70
2018-06-07T17:05:59.734Z,24.70
2018-06-07T17:09:05.916Z,24.60
2018-06-07T17:12:10.285Z,24.40
2018-06-07T17:15:14.665Z,24.30
2018-06-07T17:18:19.078Z,24.10
2018-06-07T17:21:23.455Z,24.10
2018-06-07T17:24:27.820Z,24.00
2018-06-07T17:27:32.186Z,23.90
2018-06-07T17:30:36.588Z,23.80
2018-06-07T17:33:40.965Z,23.70
2018-06-07T17:36:45.341Z,23.60
2018-06-07T17:39:49.756Z,23.60
2018-06-07T17:42:54.125Z,23.60
2018-06-07T17:49:02.660Z,23.80
2018-06-07T17:52:07.076Z,23.80
2018-06-07T17:55:11.477Z,23.80
2018-06-07T17:58:15.878Z,23.70
2018-06-07T18:01:20.224Z,23.50
2018-06-07T18:04:24.597Z,23.50
2018-06-07T18:07:28.982Z,23.20
2018-06-07T18:10:33.329Z,23.20
2018-06-07T18:13:37.700Z,23.00
2018-06-07T18:16:42.121Z,22.90
2018-06-07T18:19:46.554Z,22.90
2018-06-07T18:22:51.046Z,22.80
2018-06-07T18:25:55.440Z,22.70
2018-06-07T18:28:59.949Z,22.70
2018-06-07T18:32:04.388Z,22.60
2018-06-07T18:35:08.889Z,22.50
2018-06-07T18:38:13.365Z,22.50
2018-06-07T18:41:17.805Z,22.40
2018-06-07T18:44:22.174Z,22.40
2018-06-07T18:47:26.585Z,22.30
2018-06-07T18:50:30.992Z,22.20
2018-06-07T18:53:35.381Z,22.20
2018-06-07T18:56:39.728Z,22.10
2018-06-07T18:59:44.109Z,22.10
2018-06-07T19:02:48.534Z,21.90
2018-06-07T19:05:53.087Z,21.90
2018-06-07T19:09:02.739Z,21.90
2018-06-07T19:12:07.247Z,21.80
2018-06-07T19:15:13.306Z,21.70
2018-06-07T19:18:17.889Z,21.70
2018-06-07T19:21:22.358Z,21.60
2018-06-07T19:24:27.029Z,21.60
2018-06-07T19:27:31.577Z,21.50
2018-06-07T19:30:35.989Z,21.40
2018-06-07T19:33:45.532Z,21.40
2018-06-07T19:36:49.913Z,21.30
2018-06-07T19:39:59.688Z,21.20
2018-06-07T19:43:04.062Z,21.10
2018-06-07T19:46:08.470Z,21.00
2018-06-07T19:49:12.852Z,20.90
2018-06-07T19:52:17.256Z,20.90
2018-06-07T19:55:21.653Z,20.80
2018-06-07T19:58:26.053Z,20.70
2018-06-07T20:01:30.442Z,20.60
2018-06-07T20:07:38.991Z,20.50
2018-06-07T20:10:43.385Z,20.40
2018-06-07T20:13:47.729Z,20.30
2018-06-07T20:16:52.130Z,20.20
2018-06-07T20:19:56.484Z,20.10
2018-06-07T20:23:00.884Z,20.00
2018-06-07T20:26:05.301Z,19.90
2018-06-07T20:29:09.673Z,19.90
2018-06-07T20:32:14.058Z,19.80
2018-06-07T20:35:18.458Z,19.80
2018-06-07T20:38:22.824Z,19.70
2018-06-07T20:41:27.209Z,19.50
2018-06-07T20:44:31.573Z,19.40
2018-06-07T20:47:35.973Z,19.30
2018-06-07T20:50:40.345Z,19.20
2018-06-07T20:53:44.724Z,19.10
2018-06-07T20:56:49.114Z,19.00
2018-06-07T20:59:53.477Z,18.90
2018-06-07T21:02:57.853Z,18.90
2018-06-07T21:06:02.238Z,18.80
2018-06-07T21:09:09.508Z,18.70
2018-06-07T21:12:13.868Z,18.50
2018-06-07T21:15:18.234Z,18.40
2018-06-07T21:18:22.602Z,18.40
2018-06-07T21:21:26.975Z,18.30
2018-06-07T21:24:31.321Z,18.20
2018-06-07T21:27:35.718Z,18.10
2018-06-07T21:30:40.101Z,18.00
2018-06-07T21:33:44.492Z,17.90
2018-06-07T21:36:48.839Z,17.90
2018-06-07T21:39:53.261Z,17.80
2018-06-07T21:42:57.627Z,17.70
2018-06-07T21:46:01.998Z,17.60
2018-06-07T21:49:06.356Z,17.50
2018-06-07T21:52:10.716Z,17.40
2018-06-07T21:55:15.078Z,17.40
2018-06-07T21:58:19.464Z,17.40
2018-06-07T22:01:23.820Z,17.40
2018-06-07T22:04:28.209Z,17.30
2018-06-07T22:07:32.596Z,17.20
2018-06-07T22:10:36.970Z,17.20
2018-06-07T22:13:41.361Z,17.10
2018-06-07T22:16:45.735Z,17.00
2018-06-07T22:19:50.326Z,16.90
2018-06-07T22:22:54.725Z,16.90
2018-06-07T22:25:59.120Z,16.80
2018-06-07T22:29:03.485Z,16.70
2018-06-07T22:32:07.848Z,16.70
2018-06-07T22:35:12.221Z,16.70
2018-06-07T22:38:16.593Z,16.60
2018-06-07T22:41:20.992Z,16.60
2018-06-07T22:44:25.355Z,16.50
2018-06-07T22:47:29.748Z,16.50
2018-06-07T22:50:34.150Z,16.40
2018-06-07T22:53:38.522Z,16.40
2018-06-07T22:56:42.913Z,16.30
2018-06-07T22:59:47.305Z,16.20
2018-06-07T23:02:53.161Z,16.20
2018-06-07T23:05:57.528Z,16.10
2018-06-07T23:09:01.930Z,16.10
2018-06-07T23:12:06.305Z,16.00
2018-06-07T23:15:10.694Z,15.90
2018-06-07T23:18:15.058Z,15.90
2018-06-07T23:21:19.429Z,15.90
2018-06-07T23:24:23.826Z,15.80
2018-06-07T23:27:28.189Z,15.80
2018-06-07T23:30:32.550Z,15.80
2018-06-07T23:33:36.912Z,15.70
2018-06-07T23:36:41.289Z,15.70
2018-06-07T23:39:45.672Z,15.70
2018-06-07T23:42:50.050Z,15.60
2018-06-07T23:45:54.420Z,15.60
2018-06-07T23:48:58.797Z,15.60
2018-06-07T23:52:03.171Z,15.50
2018-06-07T23:55:07.584Z,15.50
2018-06-07T23:58:11.950Z,15.40
